sensor_id;sensor_type;location;lat;lon;timestamp;P1;durP1;ratioP1;P2;durP2;ratioP2
13805;SDS011;6974;53.606;9.872;2022-08-01T00:01:44;13.37;;;12.20;;
13805;SDS011;6974;53.606;9.872;2022-08-01T00:04:11;11.43;;;10.53;;
13805;SDS011;6974;53.606;9.872;2022-08-01T00:06:39;12.93;;;11.63;;
13805;SDS011;6974;53.606;9.872;2022-08-01T00:09:06;13.10;;;11.90;;
13805;SDS011;6974;53.606;9.872;2022-08-01T00:11:33;11.10;;;10.07;;
13805;SDS011;6974;53.606;9.872;2022-08-01T00:14:00;13.23;;;11.90;;
13805;SDS011;6974;53.606;9.872;2022-08-01T00:16:26;11.77;;;10.77;;
13805;SDS011;6974;53.606;9.872;2022-08-01T00:18:53;12.43;;;11.33;;
13805;SDS011;6974;53.606;9.872;2022-08-01T00:21:20;13.23;;;12.03;;
13805;SDS011;6974;53.606;9.872;2022-08-01T00:23:49;12.87;;;11.73;;
13805;SDS011;6974;53.606;9.872;2022-08-01T00:26:16;13.63;;;12.23;;
13805;SDS011;6974;53.606;9.872;2022-08-01T00:28:43;13.23;;;12.03;;
13805;SDS011;6974;53.606;9.872;2022-08-01T00:31:09;12.40;;;11.30;;
13805;SDS011;6974;53.606;9.872;2022-08-01T00:33:36;12.67;;;11.50;;
13805;SDS011;6974;53.606;9.872;2022-08-01T00:36:03;14.13;;;12.93;;
13805;SDS011;6974;53.606;9.872;2022-08-01T00:38:30;13.63;;;12.33;;
13805;SDS011;6974;53.606;9.872;2022-08-01T00:40:58;13.37;;;12.17;;
13805;SDS011;6974;53.606;9.872;2022-08-01T00:43:25;12.60;;;11.50;;
13805;SDS011;6974;53.606;9.872;2022-08-01T00:45:51;11.80;;;10.73;;
13805;SDS011;6974;53.606;9.872;2022-08-01T00:48:19;13.00;;;11.80;;
13805;SDS011;6974;53.606;9.872;2022-08-01T00:50:46;11.73;;;10.73;;
13805;SDS011;6974;53.606;9.872;2022-08-01T00:53:13;12.10;;;11.10;;
13805;SDS011;6974;53.606;9.872;2022-08-01T00:55:40;11.17;;;10.07;;
13805;SDS011;6974;53.606;9.872;2022-08-01T00:58:09;10.10;;;9.20;;
13805;SDS011;6974;53.606;9.872;2022-08-01T01:00:36;11.50;;;10.40;;
13805;SDS011;6974;53.606;9.872;2022-08-01T01:03:03;11.80;;;10.60;;
13805;SDS011;6974;53.606;9.872;2022-08-01T01:05:33;10.63;;;9.73;;
13805;SDS011;6974;53.606;9.872;2022-08-01T01:08:07;11.93;;;10.73;;
13805;SDS011;6974;53.606;9.872;2022-08-01T01:10:40;11.20;;;10.10;;
13805;SDS011;6974;53.606;9.872;2022-08-01T01:13:15;11.23;;;10.13;;
13805;SDS011;6974;53.606;9.872;2022-08-01T01:15:50;10.70;;;9.80;;
13805;SDS011;6974;53.606;9.872;2022-08-01T01:18:22;11.93;;;10.83;;
13805;SDS011;6974;53.606;9.872;2022-08-01T01:20:52;12.23;;;11.07;;
13805;SDS011;6974;53.606;9.872;2022-08-01T01:23:34;12.07;;;11.00;;
13805;SDS011;6974;53.606;9.872;2022-08-01T01:26:23;12.60;;;11.20;;
13805;SDS011;6974;53.606;9.872;2022-08-01T01:29:03;11.80;;;10.67;;
13805;SDS011;6974;53.606;9.872;2022-08-01T01:31:33;12.63;;;11.50;;
13805;SDS011;6974;53.606;9.872;2022-08-01T01:34:06;12.47;;;11.30;;
13805;SDS011;6974;53.606;9.872;2022-08-01T01:36:35;13.80;;;12.10;;
13805;SDS011;6974;53.606;9.872;2022-08-01T01:39:03;11.80;;;10.70;;
13805;SDS011;6974;53.606;9.872;2022-08-01T01:41:31;12.03;;;11.03;;
13805;SDS011;6974;53.606;9.872;2022-08-01T01:43:58;10.60;;;9.60;;
13805;SDS011;6974;53.606;9.872;2022-08-01T01:46:29;14.07;;;11.90;;
13805;SDS011;6974;53.606;9.872;2022-08-01T01:48:58;13.87;;;11.53;;
13805;SDS011;6974;53.606;9.872;2022-08-01T01:51:25;12.67;;;11.50;;
13805;SDS011;6974;53.606;9.872;2022-08-01T01:53:55;12.97;;;11.37;;
13805;SDS011;6974;53.606;9.872;2022-08-01T01:56:22;11.67;;;10.50;;
13805;SDS011;6974;53.606;9.872;2022-08-01T01:58:52;12.57;;;11.43;;
13805;SDS011;6974;53.606;9.872;2022-08-01T02:01:22;14.60;;;11.40;;
13805;SDS011;6974;53.606;9.872;2022-08-01T02:03:53;13.10;;;10.67;;
13805;SDS011;6974;53.606;9.872;2022-08-01T02:06:22;14.20;;;10.80;;
13805;SDS011;6974;53.606;9.872;2022-08-01T02:08:50;11.23;;;10.23;;
13805;SDS011;6974;53.606;9.872;2022-08-01T02:11:20;11.00;;;10.00;;
13805;SDS011;6974;53.606;9.872;2022-08-01T02:13:52;11.47;;;10.33;;
13805;SDS011;6974;53.606;9.872;2022-08-01T02:16:22;9.67;;;8.77;;
13805;SDS011;6974;53.606;9.872;2022-08-01T02:18:52;10.57;;;9.30;;
13805;SDS011;6974;53.606;9.872;2022-08-01T02:21:21;10.87;;;9.73;;
13805;SDS011;6974;53.606;9.872;2022-08-01T02:23:52;10.50;;;9.40;;
13805;SDS011;6974;53.606;9.872;2022-08-01T02:26:20;9.00;;;8.20;;
13805;SDS011;6974;53.606;9.872;2022-08-01T02:28:49;11.77;;;9.40;;
13805;SDS011;6974;53.606;9.872;2022-08-01T02:31:21;10.60;;;9.63;;
13805;SDS011;6974;53.606;9.872;2022-08-01T02:33:54;9.67;;;8.63;;
13805;SDS011;6974;53.606;9.872;2022-08-01T02:36:28;11.57;;;9.53;;
13805;SDS011;6974;53.606;9.872;2022-08-01T02:38:56;11.40;;;9.60;;
13805;SDS011;6974;53.606;9.872;2022-08-01T02:41:25;12.50;;;10.30;;
13805;SDS011;6974;53.606;9.872;2022-08-01T02:43:58;10.77;;;9.67;;
13805;SDS011;6974;53.606;9.872;2022-08-01T02:46:30;13.53;;;11.03;;
13805;SDS011;6974;53.606;9.872;2022-08-01T02:49:02;9.80;;;8.90;;
13805;SDS011;6974;53.606;9.872;2022-08-01T02:51:31;10.33;;;9.43;;
13805;SDS011;6974;53.606;9.872;2022-08-01T02:54:01;11.07;;;9.97;;
13805;SDS011;6974;53.606;9.872;2022-08-01T02:56:29;11.00;;;9.57;;
13805;SDS011;6974;53.606;9.872;2022-08-01T02:59:01;14.43;;;10.13;;
13805;SDS011;6974;53.606;9.872;2022-08-01T03:01:31;10.70;;;9.67;;
13805;SDS011;6974;53.606;9.872;2022-08-01T03:04:00;11.00;;;9.63;;
13805;SDS011;6974;53.606;9.872;2022-08-01T03:06:29;11.30;;;9.53;;
13805;SDS011;6974;53.606;9.872;2022-08-01T03:08:57;11.20;;;10.17;;
13805;SDS011;6974;53.606;9.872;2022-08-01T03:11:26;10.60;;;9.60;;
13805;SDS011;6974;53.606;9.872;2022-08-01T03:13:55;11.37;;;10.23;;
13805;SDS011;6974;53.606;9.872;2022-08-01T03:16:22;13.93;;;10.13;;
13805;SDS011;6974;53.606;9.872;2022-08-01T03:18:53;13.10;;;10.67;;
13805;SDS011;6974;53.606;9.872;2022-08-01T03:21:21;13.57;;;10.23;;
13805;SDS011;6974;53.606;9.872;2022-08-01T03:23:50;10.80;;;9.70;;
13805;SDS011;6974;53.606;9.872;2022-08-01T03:26:22;9.40;;;8.50;;
13805;SDS011;6974;53.606;9.872;2022-08-01T03:28:50;10.53;;;8.90;;
13805;SDS011;6974;53.606;9.872;2022-08-01T03:31:21;11.23;;;8.53;;
13805;SDS011;6974;53.606;9.872;2022-08-01T03:33:48;8.70;;;7.53;;
13805;SDS011;6974;53.606;9.872;2022-08-01T03:36:15;7.53;;;6.73;;
13805;SDS011;6974;53.606;9.872;2022-08-01T03:38:45;8.27;;;7.47;;
13805;SDS011;6974;53.606;9.872;2022-08-01T03:41:15;7.30;;;6.70;;
13805;SDS011;6974;53.606;9.872;2022-08-01T03:43:48;7.00;;;6.33;;
13805;SDS011;6974;53.606;9.872;2022-08-01T03:46:21;7.67;;;5.83;;
13805;SDS011;6974;53.606;9.872;2022-08-01T03:48:55;6.53;;;5.93;;
13805;SDS011;6974;53.606;9.872;2022-08-01T03:51:26;5.83;;;5.37;;
13805;SDS011;6974;53.606;9.872;2022-08-01T03:53:55;6.07;;;5.53;;
13805;SDS011;6974;53.606;9.872;2022-08-01T03:56:26;6.93;;;6.33;;
13805;SDS011;6974;53.606;9.872;2022-08-01T03:58:57;7.17;;;6.47;;
13805;SDS011;6974;53.606;9.872;2022-08-01T04:01:25;7.03;;;6.33;;
13805;SDS011;6974;53.606;9.872;2022-08-01T04:03:52;8.23;;;7.10;;
13805;SDS011;6974;53.606;9.872;2022-08-01T04:06:20;6.93;;;6.07;;
13805;SDS011;6974;53.606;9.872;2022-08-01T04:08:47;6.73;;;6.13;;
13805;SDS011;6974;53.606;9.872;2022-08-01T04:11:21;8.37;;;6.60;;
13805;SDS011;6974;53.606;9.872;2022-08-01T04:13:52;8.50;;;5.60;;
13805;SDS011;6974;53.606;9.872;2022-08-01T04:16:19;6.97;;;6.07;;
13805;SDS011;6974;53.606;9.872;2022-08-01T04:18:46;5.60;;;5.07;;
13805;SDS011;6974;53.606;9.872;2022-08-01T04:21:13;5.90;;;5.13;;
13805;SDS011;6974;53.606;9.872;2022-08-01T04:23:43;6.13;;;4.67;;
13805;SDS011;6974;53.606;9.872;2022-08-01T04:26:11;5.50;;;5.00;;
13805;SDS011;6974;53.606;9.872;2022-08-01T04:28:40;5.70;;;4.60;;
13805;SDS011;6974;53.606;9.872;2022-08-01T04:31:10;5.67;;;4.57;;
13805;SDS011;6974;53.606;9.872;2022-08-01T04:33:38;4.33;;;3.93;;
13805;SDS011;6974;53.606;9.872;2022-08-01T04:36:08;4.17;;;3.53;;
13805;SDS011;6974;53.606;9.872;2022-08-01T04:38:37;4.70;;;4.13;;
13805;SDS011;6974;53.606;9.872;2022-08-01T04:41:05;4.27;;;3.93;;
13805;SDS011;6974;53.606;9.872;2022-08-01T04:43:33;4.53;;;3.70;;
13805;SDS011;6974;53.606;9.872;2022-08-01T04:46:00;7.70;;;4.10;;
13805;SDS011;6974;53.606;9.872;2022-08-01T04:48:30;4.23;;;3.63;;
13805;SDS011;6974;53.606;9.872;2022-08-01T04:50:58;3.60;;;3.30;;
13805;SDS011;6974;53.606;9.872;2022-08-01T04:53:25;4.17;;;3.50;;
13805;SDS011;6974;53.606;9.872;2022-08-01T04:55:52;4.97;;;3.77;;
13805;SDS011;6974;53.606;9.872;2022-08-01T04:58:20;3.10;;;2.80;;
13805;SDS011;6974;53.606;9.872;2022-08-01T05:00:47;4.77;;;2.97;;
13805;SDS011;6974;53.606;9.872;2022-08-01T05:03:14;3.33;;;3.03;;
13805;SDS011;6974;53.606;9.872;2022-08-01T05:05:42;3.27;;;2.93;;
13805;SDS011;6974;53.606;9.872;2022-08-01T05:08:09;3.63;;;2.73;;
13805;SDS011;6974;53.606;9.872;2022-08-01T05:10:36;3.30;;;2.60;;
13805;SDS011;6974;53.606;9.872;2022-08-01T05:13:02;4.03;;;3.00;;
13805;SDS011;6974;53.606;9.872;2022-08-01T05:15:31;3.67;;;3.30;;
13805;SDS011;6974;53.606;9.872;2022-08-01T05:17:58;3.43;;;3.13;;
13805;SDS011;6974;53.606;9.872;2022-08-01T05:20:25;4.20;;;3.80;;
13805;SDS011;6974;53.606;9.872;2022-08-01T05:22:53;4.97;;;4.13;;
13805;SDS011;6974;53.606;9.872;2022-08-01T05:25:20;5.13;;;4.73;;
13805;SDS011;6974;53.606;9.872;2022-08-01T05:27:48;5.73;;;5.17;;
13805;SDS011;6974;53.606;9.872;2022-08-01T05:30:15;6.30;;;5.70;;
13805;SDS011;6974;53.606;9.872;2022-08-01T05:32:42;6.80;;;6.20;;
13805;SDS011;6974;53.606;9.872;2022-08-01T05:35:09;7.80;;;7.10;;
13805;SDS011;6974;53.606;9.872;2022-08-01T05:37:36;7.37;;;6.60;;
13805;SDS011;6974;53.606;9.872;2022-08-01T05:40:05;8.90;;;8.10;;
13805;SDS011;6974;53.606;9.872;2022-08-01T05:42:32;10.20;;;7.90;;
13805;SDS011;6974;53.606;9.872;2022-08-01T05:44:59;7.20;;;6.60;;
13805;SDS011;6974;53.606;9.872;2022-08-01T05:47:26;10.07;;;7.93;;
13805;SDS011;6974;53.606;9.872;2022-08-01T05:49:53;9.40;;;7.57;;
13805;SDS011;6974;53.606;9.872;2022-08-01T05:52:19;9.70;;;8.60;;
13805;SDS011;6974;53.606;9.872;2022-08-01T05:54:46;8.90;;;8.10;;
13805;SDS011;6974;53.606;9.872;2022-08-01T05:57:14;8.97;;;8.17;;
13805;SDS011;6974;53.606;9.872;2022-08-01T05:59:41;10.03;;;9.13;;
13805;SDS011;6974;53.606;9.872;2022-08-01T06:02:08;9.33;;;8.53;;
13805;SDS011;6974;53.606;9.872;2022-08-01T06:04:35;10.53;;;9.43;;
13805;SDS011;6974;53.606;9.872;2022-08-01T06:07:01;10.40;;;9.30;;
13805;SDS011;6974;53.606;9.872;2022-08-01T06:09:28;9.30;;;8.40;;
13805;SDS011;6974;53.606;9.872;2022-08-01T06:11:55;11.17;;;8.80;;
13805;SDS011;6974;53.606;9.872;2022-08-01T06:14:24;9.73;;;8.73;;
13805;SDS011;6974;53.606;9.872;2022-08-01T06:16:50;9.77;;;8.77;;
13805;SDS011;6974;53.606;9.872;2022-08-01T06:19:17;10.37;;;9.47;;
13805;SDS011;6974;53.606;9.872;2022-08-01T06:21:44;9.87;;;8.67;;
13805;SDS011;6974;53.606;9.872;2022-08-01T06:24:11;9.57;;;8.57;;
13805;SDS011;6974;53.606;9.872;2022-08-01T06:26:38;9.07;;;8.17;;
13805;SDS011;6974;53.606;9.872;2022-08-01T06:29:04;9.53;;;7.67;;
13805;SDS011;6974;53.606;9.872;2022-08-01T06:31:33;8.43;;;7.40;;
13805;SDS011;6974;53.606;9.872;2022-08-01T06:33:59;10.70;;;7.70;;
13805;SDS011;6974;53.606;9.872;2022-08-01T06:36:26;9.93;;;7.50;;
13805;SDS011;6974;53.606;9.872;2022-08-01T06:38:53;9.83;;;7.33;;
13805;SDS011;6974;53.606;9.872;2022-08-01T06:41:20;11.77;;;7.23;;
13805;SDS011;6974;53.606;9.872;2022-08-01T06:43:47;10.17;;;6.87;;
13805;SDS011;6974;53.606;9.872;2022-08-01T06:46:13;12.63;;;7.67;;
13805;SDS011;6974;53.606;9.872;2022-08-01T06:48:42;9.60;;;7.23;;
13805;SDS011;6974;53.606;9.872;2022-08-01T06:51:08;10.00;;;6.47;;
13805;SDS011;6974;53.606;9.872;2022-08-01T06:53:38;9.93;;;6.73;;
13805;SDS011;6974;53.606;9.872;2022-08-01T06:56:06;13.87;;;7.00;;
13805;SDS011;6974;53.606;9.872;2022-08-01T06:58:33;10.40;;;6.17;;
13805;SDS011;6974;53.606;9.872;2022-08-01T07:01:00;9.30;;;6.00;;
13805;SDS011;6974;53.606;9.872;2022-08-01T07:03:28;11.10;;;5.77;;
13805;SDS011;6974;53.606;9.872;2022-08-01T07:05:57;11.30;;;6.13;;
13805;SDS011;6974;53.606;9.872;2022-08-01T07:08:24;15.87;;;7.13;;
13805;SDS011;6974;53.606;9.872;2022-08-01T07:10:50;12.20;;;7.80;;
13805;SDS011;6974;53.606;9.872;2022-08-01T07:13:18;14.03;;;8.33;;
13805;SDS011;6974;53.606;9.872;2022-08-01T07:15:49;15.17;;;9.07;;
13805;SDS011;6974;53.606;9.872;2022-08-01T07:18:16;13.83;;;9.77;;
13805;SDS011;6974;53.606;9.872;2022-08-01T07:20:43;17.40;;;8.43;;
13805;SDS011;6974;53.606;9.872;2022-08-01T07:23:12;15.33;;;9.13;;
13805;SDS011;6974;53.606;9.872;2022-08-01T07:25:39;13.43;;;7.17;;
13805;SDS011;6974;53.606;9.872;2022-08-01T07:28:06;10.80;;;5.43;;
13805;SDS011;6974;53.606;9.872;2022-08-01T07:30:33;11.97;;;6.40;;
13805;SDS011;6974;53.606;9.872;2022-08-01T07:33:00;11.50;;;5.37;;
13805;SDS011;6974;53.606;9.872;2022-08-01T07:35:28;11.67;;;5.40;;
13805;SDS011;6974;53.606;9.872;2022-08-01T07:37:55;11.13;;;4.47;;
13805;SDS011;6974;53.606;9.872;2022-08-01T07:40:23;8.87;;;4.30;;
13805;SDS011;6974;53.606;9.872;2022-08-01T07:42:50;9.10;;;3.97;;
13805;SDS011;6974;53.606;9.872;2022-08-01T07:45:17;9.17;;;4.53;;
13805;SDS011;6974;53.606;9.872;2022-08-01T07:47:44;14.23;;;4.50;;
13805;SDS011;6974;53.606;9.872;2022-08-01T07:50:11;10.80;;;3.90;;
13805;SDS011;6974;53.606;9.872;2022-08-01T07:52:38;8.60;;;3.53;;
13805;SDS011;6974;53.606;9.872;2022-08-01T07:55:06;5.60;;;3.13;;
13805;SDS011;6974;53.606;9.872;2022-08-01T07:57:35;6.70;;;2.90;;
13805;SDS011;6974;53.606;9.872;2022-08-01T08:00:02;10.17;;;2.90;;
13805;SDS011;6974;53.606;9.872;2022-08-01T08:02:30;9.87;;;2.77;;
13805;SDS011;6974;53.606;9.872;2022-08-01T08:04:57;9.30;;;2.97;;
13805;SDS011;6974;53.606;9.872;2022-08-01T08:07:24;8.80;;;3.30;;
13805;SDS011;6974;53.606;9.872;2022-08-01T08:09:51;8.33;;;3.50;;
13805;SDS011;6974;53.606;9.872;2022-08-01T08:12:17;6.77;;;2.87;;
13805;SDS011;6974;53.606;9.872;2022-08-01T08:14:46;9.43;;;3.47;;
13805;SDS011;6974;53.606;9.872;2022-08-01T08:17:12;8.33;;;3.23;;
13805;SDS011;6974;53.606;9.872;2022-08-01T08:19:39;13.87;;;3.80;;
13805;SDS011;6974;53.606;9.872;2022-08-01T08:22:06;9.77;;;3.37;;
13805;SDS011;6974;53.606;9.872;2022-08-01T08:24:33;7.63;;;3.43;;
13805;SDS011;6974;53.606;9.872;2022-08-01T08:27:01;9.00;;;3.70;;
13805;SDS011;6974;53.606;9.872;2022-08-01T08:29:29;8.90;;;3.50;;
13805;SDS011;6974;53.606;9.872;2022-08-01T08:31:59;9.03;;;3.27;;
13805;SDS011;6974;53.606;9.872;2022-08-01T08:34:26;7.83;;;3.27;;
13805;SDS011;6974;53.606;9.872;2022-08-01T08:36:54;11.60;;;3.27;;
13805;SDS011;6974;53.606;9.872;2022-08-01T08:39:21;9.67;;;3.00;;
13805;SDS011;6974;53.606;9.872;2022-08-01T08:41:48;7.40;;;3.53;;
13805;SDS011;6974;53.606;9.872;2022-08-01T08:44:16;7.40;;;3.03;;
13805;SDS011;6974;53.606;9.872;2022-08-01T08:46:45;7.83;;;3.23;;
13805;SDS011;6974;53.606;9.872;2022-08-01T08:49:17;5.03;;;2.53;;
13805;SDS011;6974;53.606;9.872;2022-08-01T08:51:46;10.20;;;3.20;;
13805;SDS011;6974;53.606;9.872;2022-08-01T08:54:15;10.47;;;3.13;;
13805;SDS011;6974;53.606;9.872;2022-08-01T08:56:43;9.90;;;3.20;;
13805;SDS011;6974;53.606;9.872;2022-08-01T08:59:11;8.47;;;2.67;;
13805;SDS011;6974;53.606;9.872;2022-08-01T09:01:39;8.70;;;3.07;;
13805;SDS011;6974;53.606;9.872;2022-08-01T09:04:06;7.63;;;3.10;;
13805;SDS011;6974;53.606;9.872;2022-08-01T09:06:34;8.60;;;3.60;;
13805;SDS011;6974;53.606;9.872;2022-08-01T09:09:01;7.00;;;3.60;;
13805;SDS011;6974;53.606;9.872;2022-08-01T09:11:29;9.60;;;3.13;;
13805;SDS011;6974;53.606;9.872;2022-08-01T09:14:03;10.63;;;3.47;;
13805;SDS011;6974;53.606;9.872;2022-08-01T09:16:31;9.23;;;3.30;;
13805;SDS011;6974;53.606;9.872;2022-08-01T09:19:09;8.77;;;3.70;;
13805;SDS011;6974;53.606;9.872;2022-08-01T09:21:39;10.27;;;3.43;;
13805;SDS011;6974;53.606;9.872;2022-08-01T09:24:15;12.97;;;4.00;;
13805;SDS011;6974;53.606;9.872;2022-08-01T09:26:42;8.90;;;3.47;;
13805;SDS011;6974;53.606;9.872;2022-08-01T09:29:17;8.07;;;3.83;;
13805;SDS011;6974;53.606;9.872;2022-08-01T09:31:45;10.40;;;3.80;;
13805;SDS011;6974;53.606;9.872;2022-08-01T09:34:13;10.90;;;4.17;;
13805;SDS011;6974;53.606;9.872;2022-08-01T09:36:45;9.40;;;4.00;;
13805;SDS011;6974;53.606;9.872;2022-08-01T09:39:16;7.13;;;3.90;;
13805;SDS011;6974;53.606;9.872;2022-08-01T09:41:44;13.83;;;4.50;;
13805;SDS011;6974;53.606;9.872;2022-08-01T09:44:11;11.73;;;4.63;;
13805;SDS011;6974;53.606;9.872;2022-08-01T09:46:46;10.47;;;4.20;;
13805;SDS011;6974;53.606;9.872;2022-08-01T09:49:28;13.27;;;4.07;;
13805;SDS011;6974;53.606;9.872;2022-08-01T09:51:58;9.27;;;4.23;;
13805;SDS011;6974;53.606;9.872;2022-08-01T09:54:35;11.07;;;4.57;;
13805;SDS011;6974;53.606;9.872;2022-08-01T09:57:12;10.87;;;4.17;;
13805;SDS011;6974;53.606;9.872;2022-08-01T09:59:41;8.53;;;3.90;;
13805;SDS011;6974;53.606;9.872;2022-08-01T10:02:09;11.03;;;4.37;;
13805;SDS011;6974;53.606;9.872;2022-08-01T10:04:45;9.70;;;4.13;;
13805;SDS011;6974;53.606;9.872;2022-08-01T10:07:29;9.43;;;3.60;;
13805;SDS011;6974;53.606;9.872;2022-08-01T10:10:12;8.67;;;3.20;;
13805;SDS011;6974;53.606;9.872;2022-08-01T10:12:54;9.13;;;3.60;;
13805;SDS011;6974;53.606;9.872;2022-08-01T10:15:36;9.57;;;4.10;;
13805;SDS011;6974;53.606;9.872;2022-08-01T10:18:05;11.07;;;3.70;;
13805;SDS011;6974;53.606;9.872;2022-08-01T10:20:33;27.73;;;14.40;;
13805;SDS011;6974;53.606;9.872;2022-08-01T10:23:03;15.00;;;6.40;;
13805;SDS011;6974;53.606;9.872;2022-08-01T10:25:33;12.17;;;3.90;;
13805;SDS011;6974;53.606;9.872;2022-08-01T10:28:05;8.30;;;3.70;;
13805;SDS011;6974;53.606;9.872;2022-08-01T10:30:36;9.53;;;3.47;;
13805;SDS011;6974;53.606;9.872;2022-08-01T10:33:03;7.27;;;2.93;;
13805;SDS011;6974;53.606;9.872;2022-08-01T10:35:30;8.73;;;2.97;;
13805;SDS011;6974;53.606;9.872;2022-08-01T10:37:58;7.47;;;3.17;;
13805;SDS011;6974;53.606;9.872;2022-08-01T10:40:26;7.17;;;2.90;;
13805;SDS011;6974;53.606;9.872;2022-08-01T10:42:53;7.60;;;3.10;;
13805;SDS011;6974;53.606;9.872;2022-08-01T10:45:22;5.70;;;2.83;;
13805;SDS011;6974;53.606;9.872;2022-08-01T10:47:51;6.20;;;2.77;;
13805;SDS011;6974;53.606;9.872;2022-08-01T10:50:27;4.63;;;2.40;;
13805;SDS011;6974;53.606;9.872;2022-08-01T10:53:03;6.20;;;2.60;;
13805;SDS011;6974;53.606;9.872;2022-08-01T10:55:47;5.70;;;2.50;;
13805;SDS011;6974;53.606;9.872;2022-08-01T10:58:19;8.33;;;2.87;;
13805;SDS011;6974;53.606;9.872;2022-08-01T11:00:47;5.37;;;2.50;;
13805;SDS011;6974;53.606;9.872;2022-08-01T11:03:14;8.30;;;2.57;;
13805;SDS011;6974;53.606;9.872;2022-08-01T11:05:41;7.97;;;3.00;;
13805;SDS011;6974;53.606;9.872;2022-08-01T11:08:11;5.30;;;2.50;;
13805;SDS011;6974;53.606;9.872;2022-08-01T11:10:49;5.07;;;2.33;;
13805;SDS011;6974;53.606;9.872;2022-08-01T11:16:27;7.13;;;2.90;;
13805;SDS011;6974;53.606;9.872;2022-08-01T11:18:54;9.30;;;3.10;;
13805;SDS011;6974;53.606;9.872;2022-08-01T11:21:21;5.33;;;2.43;;
13805;SDS011;6974;53.606;9.872;2022-08-01T11:23:51;6.37;;;2.40;;
13805;SDS011;6974;53.606;9.872;2022-08-01T11:26:20;8.37;;;2.70;;
13805;SDS011;6974;53.606;9.872;2022-08-01T11:31:39;6.27;;;2.30;;
13805;SDS011;6974;53.606;9.872;2022-08-01T11:34:06;11.63;;;3.10;;
13805;SDS011;6974;53.606;9.872;2022-08-01T11:36:33;6.47;;;2.90;;
13805;SDS011;6974;53.606;9.872;2022-08-01T11:39:10;6.47;;;2.40;;
13805;SDS011;6974;53.606;9.872;2022-08-01T11:41:44;8.60;;;2.87;;
13805;SDS011;6974;53.606;9.872;2022-08-01T11:44:13;13.60;;;2.80;;
13805;SDS011;6974;53.606;9.872;2022-08-01T11:46:45;9.03;;;2.87;;
13805;SDS011;6974;53.606;9.872;2022-08-01T11:49:22;5.03;;;2.40;;
13805;SDS011;6974;53.606;9.872;2022-08-01T11:51:56;5.27;;;2.53;;
13805;SDS011;6974;53.606;9.872;2022-08-01T11:54:24;5.30;;;2.40;;
13805;SDS011;6974;53.606;9.872;2022-08-01T11:56:55;4.27;;;2.20;;
13805;SDS011;6974;53.606;9.872;2022-08-01T11:59:24;6.77;;;2.30;;
13805;SDS011;6974;53.606;9.872;2022-08-01T12:01:51;4.50;;;2.33;;
13805;SDS011;6974;53.606;9.872;2022-08-01T12:04:18;8.03;;;2.43;;
13805;SDS011;6974;53.606;9.872;2022-08-01T12:06:45;4.17;;;1.83;;
13805;SDS011;6974;53.606;9.872;2022-08-01T12:09:15;5.67;;;2.30;;
13805;SDS011;6974;53.606;9.872;2022-08-01T12:11:43;6.40;;;2.80;;
13805;SDS011;6974;53.606;9.872;2022-08-01T12:14:16;6.83;;;2.63;;
13805;SDS011;6974;53.606;9.872;2022-08-01T12:16:51;6.30;;;2.30;;
13805;SDS011;6974;53.606;9.872;2022-08-01T12:19:19;5.73;;;2.50;;
13805;SDS011;6974;53.606;9.872;2022-08-01T12:24:33;5.17;;;2.47;;
13805;SDS011;6974;53.606;9.872;2022-08-01T12:27:00;3.33;;;1.80;;
13805;SDS011;6974;53.606;9.872;2022-08-01T12:29:35;4.50;;;2.00;;
13805;SDS011;6974;53.606;9.872;2022-08-01T12:32:03;5.67;;;2.33;;
13805;SDS011;6974;53.606;9.872;2022-08-01T12:34:31;6.63;;;2.43;;
13805;SDS011;6974;53.606;9.872;2022-08-01T12:37:00;4.37;;;2.40;;
13805;SDS011;6974;53.606;9.872;2022-08-01T12:39:34;4.57;;;2.00;;
13805;SDS011;6974;53.606;9.872;2022-08-01T12:42:01;6.47;;;2.37;;
13805;SDS011;6974;53.606;9.872;2022-08-01T12:44:34;6.20;;;2.20;;
13805;SDS011;6974;53.606;9.872;2022-08-01T12:47:01;5.33;;;2.03;;
13805;SDS011;6974;53.606;9.872;2022-08-01T12:49:29;7.03;;;2.70;;
13805;SDS011;6974;53.606;9.872;2022-08-01T12:51:57;6.70;;;2.33;;
13805;SDS011;6974;53.606;9.872;2022-08-01T12:54:24;7.03;;;2.13;;
13805;SDS011;6974;53.606;9.872;2022-08-01T12:56:51;4.70;;;2.17;;
13805;SDS011;6974;53.606;9.872;2022-08-01T12:59:19;6.77;;;2.07;;
13805;SDS011;6974;53.606;9.872;2022-08-01T13:01:48;4.70;;;2.07;;
13805;SDS011;6974;53.606;9.872;2022-08-01T13:04:15;4.73;;;2.27;;
13805;SDS011;6974;53.606;9.872;2022-08-01T13:06:42;5.60;;;2.43;;
13805;SDS011;6974;53.606;9.872;2022-08-01T13:09:09;4.63;;;2.20;;
13805;SDS011;6974;53.606;9.872;2022-08-01T13:11:38;5.20;;;2.20;;
13805;SDS011;6974;53.606;9.872;2022-08-01T13:14:05;8.13;;;2.33;;
13805;SDS011;6974;53.606;9.872;2022-08-01T13:16:32;5.57;;;2.37;;
13805;SDS011;6974;53.606;9.872;2022-08-01T13:19:13;4.43;;;1.90;;
13805;SDS011;6974;53.606;9.872;2022-08-01T13:21:54;5.60;;;2.10;;
13805;SDS011;6974;53.606;9.872;2022-08-01T13:24:23;7.30;;;2.50;;
13805;SDS011;6974;53.606;9.872;2022-08-01T13:26:52;4.03;;;2.10;;
13805;SDS011;6974;53.606;9.872;2022-08-01T13:29:21;4.87;;;2.00;;
13805;SDS011;6974;53.606;9.872;2022-08-01T13:31:55;4.70;;;2.33;;
13805;SDS011;6974;53.606;9.872;2022-08-01T13:34:30;5.80;;;2.50;;
13805;SDS011;6974;53.606;9.872;2022-08-01T13:36:57;4.73;;;2.00;;
13805;SDS011;6974;53.606;9.872;2022-08-01T13:39:24;5.77;;;2.20;;
13805;SDS011;6974;53.606;9.872;2022-08-01T13:42:11;4.57;;;2.20;;
13805;SDS011;6974;53.606;9.872;2022-08-01T13:44:39;6.60;;;2.20;;
13805;SDS011;6974;53.606;9.872;2022-08-01T13:47:06;3.47;;;1.90;;
13805;SDS011;6974;53.606;9.872;2022-08-01T13:49:35;4.07;;;1.90;;
13805;SDS011;6974;53.606;9.872;2022-08-01T13:52:02;6.23;;;2.10;;
13805;SDS011;6974;53.606;9.872;2022-08-01T13:54:30;4.20;;;1.90;;
13805;SDS011;6974;53.606;9.872;2022-08-01T13:56:57;6.27;;;2.20;;
13805;SDS011;6974;53.606;9.872;2022-08-01T13:59:24;6.57;;;2.13;;
13805;SDS011;6974;53.606;9.872;2022-08-01T14:01:51;7.40;;;2.23;;
13805;SDS011;6974;53.606;9.872;2022-08-01T14:04:18;5.67;;;2.17;;
13805;SDS011;6974;53.606;9.872;2022-08-01T14:06:47;6.50;;;2.00;;
13805;SDS011;6974;53.606;9.872;2022-08-01T14:09:14;5.73;;;2.17;;
13805;SDS011;6974;53.606;9.872;2022-08-01T14:11:44;6.13;;;2.20;;
13805;SDS011;6974;53.606;9.872;2022-08-01T14:14:11;5.33;;;2.17;;
13805;SDS011;6974;53.606;9.872;2022-08-01T14:16:38;5.13;;;2.37;;
13805;SDS011;6974;53.606;9.872;2022-08-01T14:19:05;4.37;;;2.00;;
13805;SDS011;6974;53.606;9.872;2022-08-01T14:21:32;5.17;;;2.17;;
13805;SDS011;6974;53.606;9.872;2022-08-01T14:24:00;4.63;;;2.20;;
13805;SDS011;6974;53.606;9.872;2022-08-01T14:26:27;5.67;;;2.57;;
13805;SDS011;6974;53.606;9.872;2022-08-01T14:28:53;7.03;;;2.10;;
13805;SDS011;6974;53.606;9.872;2022-08-01T14:31:20;6.30;;;2.40;;
13805;SDS011;6974;53.606;9.872;2022-08-01T14:33:47;4.70;;;2.47;;
13805;SDS011;6974;53.606;9.872;2022-08-01T14:36:14;5.50;;;2.10;;
13805;SDS011;6974;53.606;9.872;2022-08-01T14:38:41;6.27;;;2.27;;
13805;SDS011;6974;53.606;9.872;2022-08-01T14:41:09;5.80;;;2.37;;
13805;SDS011;6974;53.606;9.872;2022-08-01T14:43:36;5.47;;;2.37;;
13805;SDS011;6974;53.606;9.872;2022-08-01T14:46:03;4.07;;;2.00;;
13805;SDS011;6974;53.606;9.872;2022-08-01T14:48:30;6.00;;;2.50;;
13805;SDS011;6974;53.606;9.872;2022-08-01T14:50:57;8.00;;;2.37;;
13805;SDS011;6974;53.606;9.872;2022-08-01T14:53:27;6.63;;;2.40;;
13805;SDS011;6974;53.606;9.872;2022-08-01T14:55:54;4.73;;;2.30;;
13805;SDS011;6974;53.606;9.872;2022-08-01T14:58:22;5.30;;;2.00;;
13805;SDS011;6974;53.606;9.872;2022-08-01T15:00:49;7.73;;;2.20;;
13805;SDS011;6974;53.606;9.872;2022-08-01T15:03:19;7.90;;;2.43;;
13805;SDS011;6974;53.606;9.872;2022-08-01T15:05:46;7.57;;;2.67;;
13805;SDS011;6974;53.606;9.872;2022-08-01T15:08:12;5.07;;;2.10;;
13805;SDS011;6974;53.606;9.872;2022-08-01T15:10:39;3.57;;;1.93;;
13805;SDS011;6974;53.606;9.872;2022-08-01T15:13:06;7.00;;;2.47;;